Time;durP1;ratioP1;P1;durP2;ratioP2;P2;SDS_P1;SDS_P2;PMS_P1;PMS_P2;Temp;Humidity;BMP_temperature;BMP_pressure;BME280_temperature;BME280_humidity;BME280_pressure;Samples;Min_cycle;Max_cycle;Signal;HPM_P1;HPM_P2
2024/01/14 00:04:37;;;;;;;13.90;11.00;;;;;;;0.12;92.19;99082.34;216037;1253;66039;-72
2024/01/14 00:09:29;;;;;;;17.40;11.70;;;;;;;0.12;92.38;99080.63;216126;1253;64688;-72
2024/01/14 00:14:22;;;;;;;17.50;11.90;;;;;;;0.11;92.62;99078.20;216135;1253;61250;-72
2024/01/14 00:19:16;;;;;;;14.00;9.80;;;;;;;0.11;92.29;99068.50;216185;1252;61822;-72
2024/01/14 00:24:09;;;;;;;15.20;11.50;;;;;;;0.09;92.39;99069.46;216174;1254;61201;-73
2024/01/14 00:29:03;;;;;;;14.40;11.10;;;;;;;0.09;92.64;99064.36;216047;1253;61243;-72
2024/01/14 00:33:56;;;;;;;14.70;11.10;;;;;;;0.10;92.68;99056.04;216051;1253;61228;-71
2024/01/14 00:38:49;;;;;;;13.20;10.10;;;;;;;0.09;92.63;99043.03;216101;1254;73024;-73
2024/01/14 00:43:42;;;;;;;15.30;12.10;;;;;;;0.09;92.73;99039.63;216058;1254;61355;-71
2024/01/14 00:48:35;;;;;;;16.20;12.00;;;;;;;0.09;92.86;99029.23;215993;1254;61330;-72
2024/01/14 00:53:28;;;;;;;14.60;10.90;;;;;;;0.09;92.69;99019.20;216179;1254;61244;-72
2024/01/14 00:58:20;;;;;;;13.70;10.60;;;;;;;0.09;92.65;99010.50;216103;1253;61249;-73
2024/01/14 01:03:14;;;;;;;16.60;11.00;;;;;;;0.10;92.79;99008.84;216087;1253;61218;-75
2024/01/14 01:08:08;;;;;;;15.90;9.70;;;;;;;0.11;92.70;99003.05;215991;1253;71352;-73
2024/01/14 01:13:01;;;;;;;14.40;10.30;;;;;;;0.09;92.72;98991.08;216095;1254;61249;-70
2024/01/14 01:17:55;;;;;;;13.20;10.80;;;;;;;0.09;92.91;98985.27;216115;1254;61862;-71
2024/01/14 01:22:48;;;;;;;14.90;10.40;;;;;;;0.11;92.91;98976.13;216202;1256;61359;-71
2024/01/14 01:27:41;;;;;;;15.20;11.00;;;;;;;0.10;92.79;98967.95;216139;1254;74853;-72
2024/01/14 01:32:52;;;;;;;14.40;10.00;;;;;;;0.10;92.85;98960.61;216109;1252;61249;-70
2024/01/14 01:37:46;;;;;;;16.60;11.30;;;;;;;0.11;92.96;98958.09;215966;1254;179492;-71
2024/01/14 01:42:38;;;;;;;16.30;10.90;;;;;;;0.13;92.86;98949.98;215916;1253;67093;-74
2024/01/14 01:47:32;;;;;;;17.10;11.00;;;;;;;0.14;93.23;98938.59;215980;1254;61608;-73
2024/01/14 01:52:25;;;;;;;18.30;12.40;;;;;;;0.15;93.14;98932.66;215952;1254;73816;-71
2024/01/14 01:57:19;;;;;;;17.20;10.60;;;;;;;0.16;93.00;98924.51;216140;1253;70992;-70
2024/01/14 02:02:13;;;;;;;14.30;11.40;;;;;;;0.16;92.78;98911.05;216097;1254;62676;-71
2024/01/14 02:07:07;;;;;;;13.20;10.20;;;;;;;0.18;93.13;98910.60;216165;1253;66292;-70
2024/01/14 02:12:00;;;;;;;17.40;11.70;;;;;;;0.20;93.12;98907.41;216041;1253;61265;-70
2024/01/14 02:16:53;;;;;;;14.60;11.20;;;;;;;0.22;93.08;98892.64;216176;1254;72836;-70
2024/01/14 02:21:49;;;;;;;14.40;11.30;;;;;;;0.24;93.00;98893.38;216135;1253;72526;-70
2024/01/14 02:26:42;;;;;;;14.10;10.90;;;;;;;0.24;92.94;98887.06;216147;1254;61330;-71
2024/01/14 02:31:35;;;;;;;16.80;11.20;;;;;;;0.24;93.06;98880.59;216174;1254;61370;-71
2024/01/14 02:36:28;;;;;;;15.40;10.60;;;;;;;0.23;93.15;98881.42;216195;1254;61250;-71
2024/01/14 02:41:21;;;;;;;17.60;12.30;;;;;;;0.22;92.90;98869.98;216094;1254;61962;-71
2024/01/14 02:46:13;;;;;;;12.40;9.90;;;;;;;0.23;93.32;98865.56;216084;1254;61290;-71
2024/01/14 02:51:06;;;;;;;14.00;10.40;;;;;;;0.22;93.14;98856.34;215963;1254;61378;-71
2024/01/14 02:55:59;;;;;;;13.00;9.80;;;;;;;0.23;93.13;98846.31;216070;1254;61245;-71
2024/01/14 03:00:52;;;;;;;13.60;10.90;;;;;;;0.24;93.25;98837.34;216086;1254;61275;-71
2024/01/14 03:05:45;;;;;;;11.90;8.20;;;;;;;0.27;93.22;98833.98;216151;1254;61360;-72
2024/01/14 03:10:38;;;;;;;13.50;10.30;;;;;;;0.27;92.97;98830.25;216031;1254;61372;-70
2024/01/14 03:15:31;;;;;;;14.40;10.60;;;;;;;0.30;93.01;98830.66;216114;1254;61940;-71
2024/01/14 03:20:24;;;;;;;13.10;9.70;;;;;;;0.30;93.04;98821.63;216136;1253;61278;-70
2024/01/14 03:25:17;;;;;;;13.50;9.30;;;;;;;0.32;93.07;98826.46;215990;1254;61252;-71
2024/01/14 03:30:10;;;;;;;12.90;9.40;;;;;;;0.33;93.15;98822.73;215885;1254;61307;-71
2024/01/14 03:35:03;;;;;;;13.20;9.00;;;;;;;0.34;93.03;98818.34;215939;1255;61253;-70
2024/01/14 03:39:58;;;;;;;14.20;10.10;;;;;;;0.36;92.78;98818.90;215950;1253;61470;-71
2024/01/14 03:44:51;;;;;;;13.80;9.80;;;;;;;0.38;92.89;98811.29;215891;1254;65284;-70
2024/01/14 03:49:43;;;;;;;16.20;10.20;;;;;;;0.40;92.90;98806.90;216024;1254;61320;-70
2024/01/14 03:54:37;;;;;;;14.10;9.50;;;;;;;0.42;92.97;98793.64;216099;1253;61079;-70
2024/01/14 03:59:30;;;;;;;12.10;8.20;;;;;;;0.43;92.77;98792.16;215867;1254;72645;-70
2024/01/14 04:04:23;;;;;;;13.90;9.40;;;;;;;0.45;92.78;98797.81;216068;1254;61141;-70
2024/01/14 04:09:16;;;;;;;15.40;9.80;;;;;;;0.46;92.98;98792.40;215980;1254;61353;-71
2024/01/14 04:14:09;;;;;;;9.70;8.20;;;;;;;0.47;92.69;98787.65;215985;1256;61237;-70
2024/01/14 04:19:01;;;;;;;10.10;8.00;;;;;;;0.48;93.00;98784.77;216033;1254;61262;-71
2024/01/14 04:23:54;;;;;;;11.30;7.50;;;;;;;0.49;93.07;98775.45;215908;1254;61267;-71
2024/01/14 04:28:47;;;;;;;10.30;7.70;;;;;;;0.51;92.86;98776.68;215909;1254;61346;-71
2024/01/14 04:33:40;;;;;;;10.60;8.10;;;;;;;0.52;92.73;98765.96;215968;1254;61288;-71
2024/01/14 04:38:33;;;;;;;11.50;8.40;;;;;;;0.53;92.60;98759.85;216060;1254;61260;-71
2024/01/14 04:43:26;;;;;;;10.90;8.20;;;;;;;0.54;92.64;98758.53;216074;1254;61750;-71
2024/01/14 04:48:19;;;;;;;10.10;7.80;;;;;;;0.56;92.48;98758.06;216074;1254;61464;-70
2024/01/14 04:53:12;;;;;;;8.80;7.50;;;;;;;0.57;92.57;98759.10;216076;1254;61247;-71
2024/01/14 04:58:05;;;;;;;9.90;7.50;;;;;;;0.57;92.42;98757.23;216158;1254;61240;-71
2024/01/14 05:02:58;;;;;;;11.40;7.10;;;;;;;0.57;92.73;98760.28;216128;1254;61285;-70
2024/01/14 05:07:51;;;;;;;9.00;7.30;;;;;;;0.57;92.69;98758.08;216092;1254;61241;-71
2024/01/14 05:12:43;;;;;;;8.50;7.10;;;;;;;0.58;92.54;98750.10;216147;1254;61281;-71
2024/01/14 05:17:36;;;;;;;11.10;8.20;;;;;;;0.57;92.67;98748.54;216086;1254;61374;-71
2024/01/14 05:22:29;;;;;;;10.20;7.70;;;;;;;0.58;92.61;98748.73;216090;1254;61245;-71
2024/01/14 05:27:22;;;;;;;9.60;7.60;;;;;;;0.59;92.59;98747.23;216120;1254;61204;-71
2024/01/14 05:32:16;;;;;;;10.30;7.50;;;;;;;0.59;92.54;98741.95;216122;1254;61141;-70
2024/01/14 05:37:09;;;;;;;9.40;8.30;;;;;;;0.59;92.48;98740.22;216065;1254;62245;-71
2024/01/14 05:42:03;;;;;;;10.60;8.50;;;;;;;0.57;92.77;98738.31;216111;1256;61731;-70
2024/01/14 05:46:56;;;;;;;10.80;7.40;;;;;;;0.56;92.83;98737.09;216043;1252;66257;-70
2024/01/14 05:51:49;;;;;;;8.70;6.80;;;;;;;0.55;92.71;98734.66;216083;1254;61918;-70
2024/01/14 05:56:42;;;;;;;9.20;7.30;;;;;;;0.55;92.76;98738.77;216204;1254;61313;-71
2024/01/14 06:01:34;;;;;;;9.70;7.70;;;;;;;0.55;93.05;98732.13;216154;1256;61237;-71
2024/01/14 06:06:27;;;;;;;13.60;8.10;;;;;;;0.56;92.81;98725.66;216138;1256;61900;-70
2024/01/14 06:11:20;;;;;;;9.80;8.50;;;;;;;0.57;92.74;98726.20;216193;1254;61312;-70
2024/01/14 06:16:13;;;;;;;10.10;8.30;;;;;;;0.56;93.01;98725.49;216114;1252;61270;-71
2024/01/14 06:21:06;;;;;;;9.90;7.60;;;;;;;0.56;92.95;98727.72;216163;1254;61281;-71
2024/01/14 06:25:59;;;;;;;8.40;7.10;;;;;;;0.55;92.95;98725.31;216158;1253;61384;-70
2024/01/14 06:30:52;;;;;;;9.90;7.70;;;;;;;0.55;92.94;98728.55;216136;1254;61259;-71
2024/01/14 06:35:45;;;;;;;10.30;8.60;;;;;;;0.56;93.02;98727.88;216144;1254;61272;-70
2024/01/14 06:40:37;;;;;;;9.90;7.40;;;;;;;0.57;92.88;98728.40;216103;1254;61336;-70
2024/01/14 06:45:34;;;;;;;7.90;7.10;;;;;;;0.58;93.06;98732.02;216028;1256;73190;-71
2024/01/14 06:50:27;;;;;;;24.70;8.90;;;;;;;0.59;92.58;98732.05;216159;1254;61335;-72
2024/01/14 06:55:20;;;;;;;8.50;6.40;;;;;;;0.61;92.85;98730.73;216114;1252;61260;-71
2024/01/14 07:00:14;;;;;;;8.80;6.50;;;;;;;0.62;92.52;98732.46;216139;1253;65846;-72
2024/01/14 07:05:08;;;;;;;9.30;6.50;;;;;;;0.65;92.32;98736.10;216051;1256;61298;-72
2024/01/14 07:10:01;;;;;;;9.00;6.60;;;;;;;0.66;92.80;98740.74;216173;1254;73192;-72
2024/01/14 07:14:54;;;;;;;6.60;5.80;;;;;;;0.67;92.78;98744.70;216145;1256;61310;-71
2024/01/14 07:19:47;;;;;;;7.00;5.90;;;;;;;0.70;92.48;98743.08;216178;1254;61247;-72
2024/01/14 07:24:40;;;;;;;7.10;6.20;;;;;;;0.73;92.25;98739.73;216148;1254;67100;-71
2024/01/14 07:29:33;;;;;;;7.30;6.10;;;;;;;0.75;92.28;98742.16;216174;1254;61302;-71
2024/01/14 07:34:27;;;;;;;8.50;6.00;;;;;;;0.77;92.24;98741.70;216114;1254;61262;-71
2024/01/14 07:39:19;;;;;;;6.80;6.10;;;;;;;0.77;91.97;98736.06;216084;1254;72350;-72
2024/01/14 07:44:12;;;;;;;9.00;6.80;;;;;;;0.79;92.09;98736.29;216132;1256;61275;-71
2024/01/14 07:49:05;;;;;;;9.10;6.40;;;;;;;0.79;92.18;98730.83;216195;1254;61803;-71
2024/01/14 07:53:58;;;;;;;7.10;6.30;;;;;;;0.80;92.09;98731.02;216173;1254;61483;-71
2024/01/14 07:58:52;;;;;;;8.40;6.50;;;;;;;0.79;92.10;98727.08;216198;1254;61197;-71
2024/01/14 08:03:46;;;;;;;8.40;6.70;;;;;;;0.78;92.07;98726.54;216061;1256;74050;-71
2024/01/14 08:08:40;;;;;;;8.00;6.10;;;;;;;0.80;92.21;98727.80;216162;1254;61298;-71
2024/01/14 08:13:32;;;;;;;8.80;7.00;;;;;;;0.86;92.22;98727.41;216097;1254;61339;-71
2024/01/14 08:18:26;;;;;;;8.20;7.00;;;;;;;0.89;92.08;98725.95;216080;1254;61364;-71
2024/01/14 08:23:19;;;;;;;10.20;6.20;;;;;;;0.89;91.84;98727.48;216132;1255;61218;-71
2024/01/14 08:28:12;;;;;;;7.90;5.90;;;;;;;0.88;92.00;98727.14;216148;1256;72443;-71
2024/01/14 08:33:05;;;;;;;6.50;5.30;;;;;;;0.89;91.92;98733.13;216002;1251;61192;-71
2024/01/14 08:37:58;;;;;;;8.70;7.00;;;;;;;0.92;92.06;98735.23;216142;1254;61256;-71
2024/01/14 08:42:50;;;;;;;7.60;6.40;;;;;;;0.94;91.98;98739.38;216101;1254;61346;-71
2024/01/14 08:47:46;;;;;;;9.30;6.60;;;;;;;0.93;92.06;98747.04;216155;1256;61277;-70
2024/01/14 08:52:39;;;;;;;8.20;6.20;;;;;;;0.91;91.99;98752.11;216103;1256;72566;-70
2024/01/14 08:57:32;;;;;;;7.60;6.50;;;;;;;0.94;91.95;98752.16;216146;1256;61201;-71
2024/01/14 09:02:26;;;;;;;7.30;5.90;;;;;;;0.97;91.92;98758.04;215986;1257;61311;-71
2024/01/14 09:07:19;;;;;;;8.70;6.30;;;;;;;1.01;91.92;98752.16;216079;1257;61237;-70
2024/01/14 09:12:12;;;;;;;6.60;5.90;;;;;;;1.02;92.02;98751.34;216190;1254;61353;-70
2024/01/14 09:17:05;;;;;;;9.00;6.20;;;;;;;1.02;92.08;98755.77;216017;1254;61290;-70
2024/01/14 09:21:57;;;;;;;7.70;5.60;;;;;;;1.02;91.70;98754.22;216114;1256;61370;-72
2024/01/14 09:26:50;;;;;;;7.70;5.40;;;;;;;1.02;91.98;98756.29;216082;1254;61266;-71
2024/01/14 09:31:43;;;;;;;7.30;6.10;;;;;;;1.02;91.78;98752.02;216190;1254;61230;-71
2024/01/14 09:36:38;;;;;;;7.40;5.40;;;;;;;1.04;91.83;98756.52;216167;1254;61851;-70
2024/01/14 09:41:48;;;;;;;7.80;6.00;;;;;;;1.10;91.81;98756.65;216160;1254;72579;-70
2024/01/14 09:46:41;;;;;;;10.80;5.90;;;;;;;1.18;91.45;98749.14;216117;1255;61234;-70
2024/01/14 09:51:37;;;;;;;8.30;5.10;;;;;;;1.19;91.25;98750.19;216163;1254;67232;-71
2024/01/14 09:56:33;;;;;;;6.50;5.60;;;;;;;1.16;91.04;98751.83;216170;1254;61276;-71
2024/01/14 10:01:30;;;;;;;9.30;5.80;;;;;;;1.12;91.03;98753.46;216241;1255;73713;-72
2024/01/14 10:06:24;;;;;;;5.40;4.90;;;;;;;1.11;91.10;98756.16;216151;1255;71697;-71
2024/01/14 10:11:17;;;;;;;8.60;6.20;;;;;;;1.15;91.24;98750.95;216071;1256;61393;-72
2024/01/14 10:16:13;;;;;;;7.70;4.90;;;;;;;1.23;91.25;98749.95;216139;1254;61275;-71
2024/01/14 10:21:27;;;;;;;9.70;5.00;;;;;;;1.28;90.96;98749.38;216146;1254;61266;-71
2024/01/14 10:26:23;;;;;;;7.10;5.10;;;;;;;1.29;90.91;98748.04;216190;1254;75056;-71
2024/01/14 10:31:16;;;;;;;7.40;5.80;;;;;;;1.43;90.68;98745.79;216128;1254;72329;-71
2024/01/14 10:36:09;;;;;;;8.30;5.70;;;;;;;1.61;90.50;98743.25;216163;1254;61272;-71
2024/01/14 10:41:04;;;;;;;6.50;5.80;;;;;;;1.61;90.41;98746.50;216123;1254;65829;-71
2024/01/14 10:45:58;;;;;;;7.40;4.90;;;;;;;1.58;90.05;98747.99;216213;1255;61590;-71
2024/01/14 10:50:55;;;;;;;9.50;6.70;;;;;;;1.52;90.22;98749.23;216119;1254;74476;-71
2024/01/14 10:55:49;;;;;;;8.60;6.00;;;;;;;1.45;90.24;98749.40;216182;1254;72147;-71
2024/01/14 11:00:47;;;;;;;7.90;6.00;;;;;;;1.40;90.38;98750.32;216077;1256;61383;-71
2024/01/14 11:05:41;;;;;;;7.70;5.30;;;;;;;1.36;90.55;98745.28;216014;1254;66788;-71
2024/01/14 11:10:34;;;;;;;7.80;5.60;;;;;;;1.30;90.36;98753.36;216185;1253;61274;-71
2024/01/14 11:15:45;;;;;;;9.10;7.30;;;;;;;1.28;90.49;98750.91;216193;1254;73591;-71
2024/01/14 11:20:44;;;;;;;9.20;6.40;;;;;;;1.31;90.39;98747.73;216131;1254;72517;-71
2024/01/14 11:25:57;;;;;;;9.50;6.50;;;;;;;1.28;90.55;98749.20;216140;1254;61224;-71
2024/01/14 11:30:55;;;;;;;12.30;7.70;;;;;;;1.18;90.59;98754.60;216136;1254;61337;-71
2024/01/14 11:35:49;;;;;;;10.90;7.20;;;;;;;1.07;90.97;98745.64;216178;1253;61262;-71
2024/01/14 11:40:42;;;;;;;9.50;7.50;;;;;;;1.08;91.07;98743.96;216150;1254;61355;-71
2024/01/14 11:45:37;;;;;;;11.20;7.60;;;;;;;1.06;91.22;98735.74;216192;1254;61236;-72
2024/01/14 11:50:31;;;;;;;8.90;7.50;;;;;;;1.09;91.34;98727.61;216221;1254;61374;-71
2024/01/14 11:55:30;;;;;;;10.70;7.50;;;;;;;1.08;91.26;98729.83;216155;1254;65789;-71
2024/01/14 12:00:25;;;;;;;13.70;8.40;;;;;;;1.07;91.07;98737.81;216064;1254;61236;-76
2024/01/14 12:05:19;;;;;;;11.10;9.00;;;;;;;1.05;91.14;98732.48;216199;1254;74530;-72
2024/01/14 12:10:18;;;;;;;10.90;7.80;;;;;;;1.05;91.31;98732.30;216121;1257;71452;-72
2024/01/14 12:15:11;;;;;;;12.00;8.80;;;;;;;1.04;91.14;98734.15;216082;1254;61351;-72
2024/01/14 12:20:08;;;;;;;13.60;8.10;;;;;;;1.00;91.37;98735.08;216146;1256;66999;-71
2024/01/14 12:25:03;;;;;;;10.80;8.60;;;;;;;0.98;91.37;98739.11;216084;1254;61294;-72
2024/01/14 12:29:57;;;;;;;12.20;8.90;;;;;;;0.98;91.26;98740.98;216201;1253;73349;-72
2024/01/14 12:34:50;;;;;;;14.20;9.10;;;;;;;0.96;91.47;98746.75;216020;1254;71356;-72
2024/01/14 12:39:43;;;;;;;11.50;8.70;;;;;;;0.95;91.57;98741.27;216131;1254;61368;-72
2024/01/14 12:44:43;;;;;;;14.80;8.90;;;;;;;0.90;91.41;98742.02;216122;1254;65668;-71
2024/01/14 12:49:37;;;;;;;11.00;7.90;;;;;;;0.87;91.78;98746.55;215807;1254;61320;-72
2024/01/14 12:54:30;;;;;;;12.20;7.70;;;;;;;0.86;91.35;98748.38;215921;1254;73030;-72
2024/01/14 12:59:23;;;;;;;14.00;7.80;;;;;;;0.86;91.22;98755.02;215915;1254;72589;-72
2024/01/14 13:04:16;;;;;;;11.60;8.90;;;;;;;0.88;91.63;98752.02;215771;1254;61205;-72
2024/01/14 13:09:09;;;;;;;10.80;7.60;;;;;;;0.89;91.45;98750.84;215755;1254;61287;-72
2024/01/14 13:14:02;;;;;;;14.70;8.90;;;;;;;0.89;91.39;98747.28;215902;1254;61458;-72
2024/01/14 13:18:55;;;;;;;10.60;7.40;;;;;;;0.89;91.34;98754.77;215786;1254;61310;-72
2024/01/14 13:23:49;;;;;;;10.50;7.80;;;;;;;0.90;91.40;98764.54;215973;1253;71677;-72
2024/01/14 13:28:45;;;;;;;11.20;8.10;;;;;;;0.90;91.22;98768.62;215864;1254;61192;-74
2024/01/14 13:33:37;;;;;;;10.00;7.40;;;;;;;0.90;91.09;98768.96;215927;1253;61291;-73
2024/01/14 13:38:30;;;;;;;10.10;8.00;;;;;;;0.93;91.17;98780.29;216040;1254;61262;-73
2024/01/14 13:43:23;;;;;;;11.40;7.60;;;;;;;0.94;91.06;98778.60;216118;1253;61336;-71
2024/01/14 13:48:16;;;;;;;14.50;8.40;;;;;;;0.97;91.21;98777.66;216169;1254;61338;-73
2024/01/14 13:53:09;;;;;;;10.80;7.20;;;;;;;0.98;90.94;98774.61;216105;1253;61217;-71
2024/01/14 13:58:10;;;;;;;13.60;8.30;;;;;;;0.97;90.67;98778.16;216168;1254;61856;-72
2024/01/14 14:03:03;;;;;;;11.50;8.70;;;;;;;0.98;90.99;98780.73;216150;1254;61215;-72
2024/01/14 14:07:56;;;;;;;10.50;8.10;;;;;;;0.96;90.80;98771.83;216142;1254;74597;-73
2024/01/14 14:12:49;;;;;;;12.50;8.00;;;;;;;0.95;90.79;98770.45;216069;1254;61329;-73
2024/01/14 14:17:42;;;;;;;12.20;8.20;;;;;;;0.94;90.84;98775.38;216094;1254;61283;-72
2024/01/14 14:22:42;;;;;;;9.40;7.80;;;;;;;0.91;90.65;98778.71;216195;1254;65688;-72
2024/01/14 14:27:35;;;;;;;9.40;7.00;;;;;;;0.91;90.95;98784.66;216106;1253;61268;-71
2024/01/14 14:32:29;;;;;;;10.60;6.70;;;;;;;0.90;90.70;98788.75;215849;1253;74593;-72
2024/01/14 14:37:23;;;;;;;12.30;7.80;;;;;;;0.89;90.57;98791.95;215983;1254;61346;-72
2024/01/14 14:42:19;;;;;;;12.20;7.60;;;;;;;0.88;90.47;98799.77;216007;1254;61322;-72
2024/01/14 14:47:12;;;;;;;10.60;7.20;;;;;;;0.87;90.64;98804.54;215921;1254;67162;-71
2024/01/14 14:52:04;;;;;;;11.00;7.60;;;;;;;0.85;90.55;98799.20;216064;1254;61375;-71
2024/01/14 14:57:00;;;;;;;13.40;8.40;;;;;;;0.84;90.75;98802.06;216037;1254;61268;-72
2024/01/14 15:01:56;;;;;;;12.00;7.00;;;;;;;0.84;90.70;98806.50;216029;1253;71680;-71
2024/01/14 15:06:49;;;;;;;11.20;7.20;;;;;;;0.84;90.74;98804.30;216067;1254;61248;-72
2024/01/14 15:11:42;;;;;;;10.30;7.60;;;;;;;0.84;90.38;98800.19;216224;1251;61243;-72
2024/01/14 15:16:36;;;;;;;9.80;7.70;;;;;;;0.84;90.62;98796.77;216193;1253;61333;-71
2024/01/14 15:21:28;;;;;;;11.20;6.90;;;;;;;0.84;90.47;98794.21;216196;1253;74629;-72
2024/01/14 15:26:22;;;;;;;10.10;7.20;;;;;;;0.84;90.51;98790.12;216126;1254;61259;-71
2024/01/14 15:31:15;;;;;;;8.60;6.60;;;;;;;0.84;90.23;98789.80;216164;1253;61381;-71
2024/01/14 15:36:08;;;;;;;10.60;5.60;;;;;;;0.85;90.02;98783.33;216167;1254;65910;-70
2024/01/14 15:41:04;;;;;;;8.10;5.90;;;;;;;0.85;89.95;98785.05;216166;1254;61345;-70
2024/01/14 15:45:59;;;;;;;10.70;6.80;;;;;;;0.86;89.81;98788.29;216064;1254;73413;-71
2024/01/14 15:50:52;;;;;;;10.70;5.80;;;;;;;0.85;89.95;98787.09;216193;1253;61563;-71
2024/01/14 15:55:55;;;;;;;9.70;6.60;;;;;;;0.85;89.65;98781.46;216165;1254;61289;-70
2024/01/14 16:00:48;;;;;;;10.70;7.20;;;;;;;0.85;89.90;98782.14;216070;1253;61281;-71
2024/01/14 16:05:59;;;;;;;11.40;7.50;;;;;;;0.85;89.75;98775.83;216123;1252;61333;-70
2024/01/14 16:10:52;;;;;;;7.10;5.30;;;;;;;0.86;89.75;98768.33;215972;1253;72058;-70
2024/01/14 16:15:57;;;;;;;13.50;6.70;;;;;;;0.86;89.75;98771.94;216058;1253;71382;-71
2024/01/14 16:20:50;;;;;;;7.90;5.90;;;;;;;0.86;89.62;98771.58;216029;1253;61330;-71
2024/01/14 16:25:55;;;;;;;10.10;6.00;;;;;;;0.86;89.88;98766.81;215767;1253;66233;-71
2024/01/14 16:30:51;;;;;;;8.70;6.50;;;;;;;0.87;89.46;98765.30;215851;1254;61249;-73
2024/01/14 16:36:03;;;;;;;10.20;6.00;;;;;;;0.87;89.69;98765.11;216175;1253;73365;-70
2024/01/14 16:40:57;;;;;;;10.70;6.20;;;;;;;0.86;89.51;98762.21;216102;1256;71873;-70
2024/01/14 16:45:57;;;;;;;8.90;5.60;;;;;;;0.86;89.36;98765.30;216220;1254;61326;-71
2024/01/14 16:50:50;;;;;;;8.20;5.30;;;;;;;0.86;89.10;98768.86;216259;1253;61378;-71
2024/01/14 16:56:00;;;;;;;11.30;6.50;;;;;;;0.86;89.20;98766.14;216143;1252;61353;-71
2024/01/14 17:00:53;;;;;;;8.80;5.40;;;;;;;0.88;89.03;98769.09;216219;1253;74352;-71
2024/01/14 17:06:06;;;;;;;10.50;5.50;;;;;;;0.89;89.06;98772.34;216140;1253;72629;-70
2024/01/14 17:11:08;;;;;;;10.70;6.70;;;;;;;0.89;88.71;98767.90;216154;1253;61462;-71
2024/01/14 17:16:02;;;;;;;10.90;5.50;;;;;;;0.88;88.55;98770.29;216169;1253;67056;-70
2024/01/14 17:21:03;;;;;;;12.90;6.80;;;;;;;0.89;88.57;98770.64;216148;1256;61267;-70
2024/01/14 17:25:57;;;;;;;10.30;5.90;;;;;;;0.89;88.62;98766.38;216205;1256;72275;-71
2024/01/14 17:31:00;;;;;;;9.50;6.90;;;;;;;0.90;88.33;98757.52;216144;1253;71600;-71
2024/01/14 17:35:54;;;;;;;11.30;6.40;;;;;;;0.90;88.12;98752.92;216102;1256;61346;-71
2024/01/14 17:40:57;;;;;;;9.60;5.50;;;;;;;0.91;88.03;98746.48;216138;1252;65911;-71
2024/01/14 17:45:49;;;;;;;12.50;7.60;;;;;;;0.92;88.12;98743.77;216167;1253;65699;-70
2024/01/14 17:51:01;;;;;;;11.70;6.60;;;;;;;0.92;87.77;98742.41;216135;1253;74408;-70
2024/01/14 17:55:55;;;;;;;16.30;8.00;;;;;;;0.92;87.78;98735.56;216109;1256;71092;-71
2024/01/14 18:00:48;;;;;;;11.90;7.30;;;;;;;0.92;87.62;98743.26;216108;1254;61339;-71
2024/01/14 18:05:41;;;;;;;12.00;6.90;;;;;;;0.91;87.69;98743.40;215760;1252;65082;-69
2024/01/14 18:10:34;;;;;;;12.00;8.10;;;;;;;0.91;87.61;98740.16;215577;1253;61378;-70
2024/01/14 18:15:27;;;;;;;11.80;6.70;;;;;;;0.91;87.61;98736.75;215546;1253;61244;-70
2024/01/14 18:20:20;;;;;;;12.80;7.20;;;;;;;0.91;87.50;98726.51;215787;1253;61488;-69
2024/01/14 18:25:13;;;;;;;13.60;8.20;;;;;;;0.90;87.66;98724.96;215965;1254;61381;-70
2024/01/14 18:30:08;;;;;;;12.40;8.20;;;;;;;0.91;87.23;98720.02;215982;1253;61308;-70
2024/01/14 18:35:01;;;;;;;12.00;8.40;;;;;;;0.89;87.43;98707.54;215979;1253;61378;-70
2024/01/14 18:39:54;;;;;;;11.00;8.30;;;;;;;0.88;87.47;98704.95;216017;1253;74571;-70
2024/01/14 18:44:47;;;;;;;12.20;7.90;;;;;;;0.88;87.42;98704.09;216036;1254;61235;-69
2024/01/14 18:49:40;;;;;;;11.70;7.60;;;;;;;0.87;87.42;98695.20;216058;1256;61361;-70
2024/01/14 18:54:33;;;;;;;11.30;7.80;;;;;;;0.86;87.27;98697.56;216017;1253;61411;-70
2024/01/14 18:59:26;;;;;;;12.90;8.30;;;;;;;0.86;87.23;98685.77;216001;1254;61382;-70
2024/01/14 19:04:19;;;;;;;13.40;7.00;;;;;;;0.85;87.16;98682.88;216144;1253;72723;-69
2024/01/14 19:09:13;;;;;;;10.30;7.80;;;;;;;0.84;87.01;98682.35;216046;1253;71977;-70
2024/01/14 19:14:07;;;;;;;12.10;7.50;;;;;;;0.84;87.03;98673.98;215885;1254;61232;-69
2024/01/14 19:19:00;;;;;;;12.80;7.20;;;;;;;0.84;87.11;98674.65;215975;1254;67220;-70
2024/01/14 19:23:54;;;;;;;10.70;7.00;;;;;;;0.83;86.82;98664.05;215928;1252;61292;-72
2024/01/14 19:28:47;;;;;;;9.60;6.50;;;;;;;0.82;87.11;98661.65;215829;1254;73520;-72
2024/01/14 19:33:40;;;;;;;13.50;7.80;;;;;;;0.81;86.79;98659.41;215893;1254;61336;-72
2024/01/14 19:38:33;;;;;;;10.10;7.10;;;;;;;0.79;86.76;98655.95;215936;1253;61252;-71
2024/01/14 19:43:27;;;;;;;9.80;7.10;;;;;;;0.80;86.82;98652.23;215810;1254;61308;-71
2024/01/14 19:48:21;;;;;;;10.10;7.10;;;;;;;0.80;86.85;98651.69;216044;1254;61285;-71
2024/01/14 19:53:18;;;;;;;12.50;7.70;;;;;;;0.79;86.83;98647.59;216273;1254;74193;-71
2024/01/14 19:58:11;;;;;;;12.20;9.30;;;;;;;0.79;86.68;98649.13;216076;1253;73649;-73
2024/01/14 20:03:04;;;;;;;11.70;8.30;;;;;;;0.79;86.72;98640.95;216155;1253;61287;-71
2024/01/14 20:07:57;;;;;;;13.50;8.10;;;;;;;0.78;86.68;98633.08;215995;1253;67536;-72
2024/01/14 20:12:50;;;;;;;11.90;7.80;;;;;;;0.78;86.78;98629.16;215867;1253;61333;-71
2024/01/14 20:17:43;;;;;;;10.20;7.50;;;;;;;0.78;86.81;98625.23;216021;1252;61384;-72
2024/01/14 20:22:44;;;;;;;12.90;8.80;;;;;;;0.77;86.67;98619.77;215886;1254;61285;-71
2024/01/14 20:27:36;;;;;;;13.00;8.60;;;;;;;0.78;86.91;98610.73;215910;1253;61265;-71
2024/01/14 20:32:30;;;;;;;13.40;8.70;;;;;;;0.77;87.01;98607.98;215816;1254;61377;-70
2024/01/14 20:37:23;;;;;;;14.20;9.50;;;;;;;0.76;87.08;98600.66;215919;1254;61279;-70
2024/01/14 20:42:16;;;;;;;16.60;9.90;;;;;;;0.76;87.11;98600.29;215936;1254;61386;-70
2024/01/14 20:47:09;;;;;;;11.50;8.70;;;;;;;0.77;86.93;98597.77;216051;1253;61410;-70
2024/01/14 20:52:02;;;;;;;17.30;10.70;;;;;;;0.78;87.10;98596.92;216242;1256;61240;-69
2024/01/14 20:56:55;;;;;;;14.20;10.40;;;;;;;0.79;87.01;98596.08;216066;1253;61214;-70
2024/01/14 21:01:48;;;;;;;13.90;9.50;;;;;;;0.81;87.29;98588.11;216042;1253;61243;-70
2024/01/14 21:06:40;;;;;;;12.70;9.70;;;;;;;0.82;87.35;98585.41;216163;1254;61119;-70
2024/01/14 21:11:33;;;;;;;13.50;10.20;;;;;;;0.82;87.43;98578.24;215951;1253;61534;-71
2024/01/14 21:16:26;;;;;;;12.10;9.10;;;;;;;0.82;87.43;98570.73;216159;1254;61310;-71
2024/01/14 21:21:24;;;;;;;14.10;11.00;;;;;;;0.82;87.49;98562.22;216287;1253;61349;-71
2024/01/14 21:26:17;;;;;;;14.10;10.00;;;;;;;0.82;87.60;98563.23;215833;1254;61359;-71
2024/01/14 21:31:09;;;;;;;15.20;11.20;;;;;;;0.81;87.92;98559.80;215811;1254;61220;-71
2024/01/14 21:36:04;;;;;;;11.60;9.00;;;;;;;0.80;87.96;98552.61;215660;1256;61394;-71
2024/01/14 21:40:57;;;;;;;14.60;10.30;;;;;;;0.76;88.12;98546.58;215578;1253;61226;-71
2024/01/14 21:45:49;;;;;;;12.70;9.30;;;;;;;0.75;88.18;98535.65;215669;1253;61372;-72
2024/01/14 21:50:42;;;;;;;15.70;9.30;;;;;;;0.77;88.16;98534.65;215984;1253;61259;-72
2024/01/14 21:55:43;;;;;;;14.70;10.00;;;;;;;0.76;88.27;98536.02;215975;1256;61348;-71
2024/01/14 22:00:39;;;;;;;14.40;9.80;;;;;;;0.76;88.43;98538.05;215975;1253;72678;-71
2024/01/14 22:05:32;;;;;;;13.60;9.80;;;;;;;0.76;88.57;98533.45;215899;1254;61279;-71
2024/01/14 22:16:08;;;;;;;13.00;10.30;;;;;;;0.73;88.78;98525.89;215011;1259;61534;-70
2024/01/14 22:21:00;;;;;;;13.20;9.60;;;;;;;0.70;88.99;98520.88;215044;1258;61292;-70
2024/01/14 22:25:57;;;;;;;11.70;8.50;;;;;;;0.69;89.39;98521.70;215004;1260;61322;-71
2024/01/14 22:30:49;;;;;;;11.40;8.80;;;;;;;0.68;89.30;98518.45;214975;1262;61334;-71
2024/01/14 22:35:42;;;;;;;14.00;9.80;;;;;;;0.66;89.45;98517.39;214853;1259;61372;-70
2024/01/14 22:40:35;;;;;;;11.70;8.90;;;;;;;0.65;89.62;98514.12;214817;1260;61423;-70
2024/01/14 22:45:28;;;;;;;12.50;9.10;;;;;;;0.65;89.81;98511.04;214824;1260;61350;-71
2024/01/14 22:50:21;;;;;;;12.60;8.60;;;;;;;0.65;89.67;98508.81;215547;1254;61591;-70
2024/01/14 22:55:14;;;;;;;12.00;9.40;;;;;;;0.65;89.82;98502.86;215936;1253;61735;-70
2024/01/14 23:00:13;;;;;;;13.30;9.60;;;;;;;0.64;89.99;98494.83;215913;1254;61458;-70